Metar Aviation Weather Data ENHD

7°C Temp
1°C Dewpoint
% Humidity
Temperature
63 KM/H
39 MPH
34 KTS
330°
North North
West

Wind Speed
Mostly Scattered
Clouds
Pressure 980.92 (hPa) - 28.97 (in)
Visibility 5.6 (mi) - 9 (km)

Current Conditions
ENHD
Metar :ENHD 090750Z 33034G49KT 9000 SCT033 07/01 Q0981
Mon 9th December 09:50 am

  Metar Aviation API Data Provided by https://www.checkwx.com/ PHP scripts by weather34.com ©2019